Time;durP1;ratioP1;P1;durP2;ratioP2;P2;SDS_P1;SDS_P2;PMS_P1;PMS_P2;Temp;Humidity;BMP_temperature;BMP_pressure;BME280_temperature;BME280_humidity;BME280_pressure;Samples;Min_cycle;Max_cycle;Signal;HPM_P1;HPM_P2
2022/10/29 00:00:36;;;;;;;12.93;4.35;;;14.80;99.90;;;;;;5065400;28;20067;-79
2022/10/29 00:03:02;;;;;;;9.65;3.88;;;14.80;99.90;;;;;;5054280;28;20599;-79
2022/10/29 00:05:27;;;;;;;11.90;3.78;;;14.80;99.90;;;;;;5053678;28;20055;-79
2022/10/29 00:07:53;;;;;;;10.45;4.38;;;14.70;99.90;;;;;;5059339;28;20121;-79
2022/10/29 00:10:19;;;;;;;14.73;4.55;;;14.70;99.90;;;;;;5063223;28;20537;-79
2022/10/29 00:12:44;;;;;;;14.10;4.50;;;14.70;99.90;;;;;;5081458;28;20127;-79
2022/10/29 00:15:10;;;;;;;11.95;4.18;;;14.70;99.90;;;;;;5060725;28;20029;-79
2022/10/29 00:17:36;;;;;;;18.35;4.88;;;14.70;99.90;;;;;;5064463;28;20480;-79
2022/10/29 00:20:02;;;;;;;16.05;3.92;;;14.70;99.90;;;;;;5067512;28;20100;-79
2022/10/29 00:22:27;;;;;;;14.13;4.13;;;14.60;99.90;;;;;;5063467;28;20025;-79
2022/10/29 00:24:53;;;;;;;10.60;3.80;;;14.60;99.90;;;;;;5069144;28;20114;-77
2022/10/29 00:27:18;;;;;;;9.75;3.58;;;14.60;99.90;;;;;;5067510;28;20031;-77
2022/10/29 00:29:44;;;;;;;9.88;3.65;;;14.60;99.90;;;;;;5064142;28;20472;-78
2022/10/29 00:32:11;;;;;;;16.17;4.15;;;14.60;99.90;;;;;;5068094;28;20052;-78
2022/10/29 00:34:37;;;;;;;14.00;4.50;;;14.60;99.90;;;;;;5080438;28;20432;-78
2022/10/29 00:37:04;;;;;;;13.15;4.65;;;14.50;99.90;;;;;;5065266;28;20108;-77
2022/10/29 00:39:31;;;;;;;12.82;4.20;;;14.50;99.90;;;;;;5062861;28;20051;-78
2022/10/29 00:41:58;;;;;;;11.63;4.78;;;14.50;99.90;;;;;;5066322;28;20028;-78
2022/10/29 00:44:34;;;;;;;14.88;4.82;;;14.50;99.90;;;;;;5069108;28;20024;-78
2022/10/29 00:47:09;;;;;;;19.67;5.75;;;14.40;99.90;;;;;;5065062;28;20123;-78
2022/10/29 00:49:35;;;;;;;12.27;5.18;;;14.30;99.90;;;;;;5065821;28;20082;-78
2022/10/29 00:52:03;;;;;;;15.32;4.97;;;14.30;99.90;;;;;;5064456;28;20021;-78
2022/10/29 00:54:31;;;;;;;15.05;5.72;;;14.30;99.90;;;;;;5064907;28;20043;-78
2022/10/29 00:57:08;;;;;;;14.95;4.90;;;14.20;99.90;;;;;;5066195;28;20032;-78
2022/10/29 00:59:34;;;;;;;14.63;5.45;;;14.10;99.90;;;;;;5062926;28;20548;-78
2022/10/29 01:01:59;;;;;;;16.70;6.20;;;14.10;99.90;;;;;;5065168;28;20052;-78
2022/10/29 01:04:26;;;;;;;11.63;4.68;;;14.00;99.90;;;;;;5048116;28;20039;-78
2022/10/29 01:06:52;;;;;;;12.02;5.40;;;14.00;99.90;;;;;;5066856;28;20056;-78
2022/10/29 01:09:17;;;;;;;16.45;5.70;;;13.90;99.90;;;;;;5059704;28;20064;-78
2022/10/29 01:12:02;;;;;;;15.43;6.18;;;13.90;99.90;;;;;;5066528;28;20017;-78
2022/10/29 01:14:31;;;;;;;16.33;6.45;;;13.90;99.90;;;;;;5066562;28;20061;-78
2022/10/29 01:17:21;;;;;;;14.55;5.68;;;13.90;99.90;;;;;;5060489;28;20543;-78
2022/10/29 01:20:12;;;;;;;19.33;5.35;;;13.90;99.90;;;;;;5065300;28;20028;-78
2022/10/29 01:23:07;;;;;;;14.32;5.03;;;13.90;99.90;;;;;;5065645;28;20024;-78
2022/10/29 01:26:15;;;;;;;15.70;5.65;;;13.90;99.90;;;;;;5030867;28;20033;-78
2022/10/29 01:29:09;;;;;;;13.80;4.95;;;13.90;99.90;;;;;;5053706;28;20488;-78
2022/10/29 01:31:41;;;;;;;;;;;13.90;99.90;;;;;;5067164;28;20077;-77
2022/10/29 01:34:21;;;;;;;13.15;4.10;;;14.00;99.90;;;;;;5079898;28;19908;-78
2022/10/29 01:36:59;;;;;;;14.18;4.70;;;14.00;99.90;;;;;;5063426;28;20093;-78
2022/10/29 01:39:43;;;;;;;10.55;4.03;;;14.00;99.90;;;;;;5065142;28;20029;-78
2022/10/29 01:42:37;;;;;;;12.05;3.47;;;14.00;99.90;;;;;;5065286;28;20079;-78
2022/10/29 01:45:30;;;;;;;13.73;5.05;;;14.00;99.90;;;;;;5034815;28;20044;-78
2022/10/29 01:48:01;;;;;;;16.98;4.65;;;14.00;99.90;;;;;;5064251;28;20122;-78
2022/10/29 01:50:28;;;;;;;17.15;6.20;;;14.00;99.90;;;;;;5082126;28;20028;-77
2022/10/29 01:52:54;;;;;;;12.20;4.53;;;14.00;99.90;;;;;;5067642;28;20029;-77
2022/10/29 01:55:28;;;;;;;14.50;4.57;;;14.00;99.90;;;;;;5068172;28;20384;-77
2022/10/29 01:57:54;;;;;;;9.70;4.43;;;14.00;99.90;;;;;;5061625;28;20753;-78
2022/10/29 02:00:21;;;;;;;14.23;4.55;;;14.00;99.90;;;;;;5066498;28;20020;-77
2022/10/29 02:03:11;;;;;;;11.77;4.40;;;14.00;99.90;;;;;;5067818;28;20032;-77
2022/10/29 02:05:45;;;;;;;10.63;4.47;;;14.00;99.90;;;;;;5055991;28;20024;-78
2022/10/29 02:08:45;;;;;;;16.25;4.72;;;14.00;99.90;;;;;;5064036;28;20029;-78
2022/10/29 02:11:50;;;;;;;15.50;4.03;;;14.00;99.90;;;;;;5065790;28;20526;-77
2022/10/29 02:14:44;;;;;;;14.98;4.75;;;14.00;99.90;;;;;;5057643;28;20043;-77
2022/10/29 02:17:10;;;;;;;;;;;14.00;99.90;;;;;;5066704;28;20469;-77
2022/10/29 02:19:36;;;;;;;10.10;4.13;;;14.00;99.90;;;;;;5060955;28;20348;-77
2022/10/29 02:22:02;;;;;;;9.75;4.40;;;14.00;99.90;;;;;;5062339;28;20025;-78
2022/10/29 02:24:28;;;;;;;17.33;4.68;;;13.90;99.90;;;;;;5063993;28;20037;-78
2022/10/29 02:26:53;;;;;;;13.50;4.50;;;13.90;99.90;;;;;;5067385;28;20031;-78
2022/10/29 02:29:20;;;;;;;15.18;4.72;;;13.90;99.90;;;;;;5082363;28;20056;-78
2022/10/29 02:31:45;;;;;;;9.60;4.30;;;13.90;99.90;;;;;;5066240;28;20021;-78
2022/10/29 02:34:11;;;;;;;10.02;5.03;;;13.80;99.90;;;;;;5065434;28;20027;-77
2022/10/29 02:36:37;;;;;;;11.65;4.35;;;13.90;99.90;;;;;;5066605;28;20715;-77
2022/10/29 02:39:03;;;;;;;11.63;4.60;;;13.80;99.90;;;;;;5065675;28;20020;-78
2022/10/29 02:41:28;;;;;;;14.95;5.30;;;13.80;99.90;;;;;;5062521;28;20104;-78
2022/10/29 02:43:54;;;;;;;15.73;5.00;;;13.80;99.90;;;;;;5067712;28;20034;-77
2022/10/29 02:46:21;;;;;;;13.77;4.97;;;13.80;99.90;;;;;;5065350;28;20024;-77
2022/10/29 02:48:48;;;;;;;13.13;4.20;;;13.80;99.90;;;;;;5066677;28;20492;-78
2022/10/29 02:51:14;;;;;;;11.15;3.90;;;13.80;99.90;;;;;;5067741;28;20028;-78
2022/10/29 02:53:41;;;;;;;10.93;4.28;;;13.90;99.90;;;;;;5067628;28;20020;-78
2022/10/29 02:56:07;;;;;;;11.68;4.00;;;13.90;99.90;;;;;;5077203;22;20032;-77
2022/10/29 02:58:38;;;;;;;14.77;4.47;;;13.90;99.90;;;;;;5030981;28;20056;-78
2022/10/29 03:01:05;;;;;;;14.25;4.40;;;13.90;99.90;;;;;;5036043;28;20037;-79
2022/10/29 03:03:31;;;;;;;13.48;4.90;;;14.00;99.90;;;;;;5030523;28;20034;-79
2022/10/29 03:05:56;;;;;;;12.45;4.13;;;13.90;99.90;;;;;;5015351;28;20080;-78
2022/10/29 03:08:22;;;;;;;12.25;4.95;;;14.00;99.90;;;;;;5011964;28;20414;-77
2022/10/29 03:10:54;;;;;;;13.75;4.20;;;14.00;99.90;;;;;;5014657;28;20022;-78
2022/10/29 03:13:32;;;;;;;11.65;4.35;;;14.00;99.90;;;;;;5029951;28;20053;-78
2022/10/29 03:15:57;;;;;;;9.80;4.53;;;14.00;99.90;;;;;;5034992;28;20117;-76
2022/10/29 03:18:35;;;;;;;14.13;4.18;;;14.00;99.90;;;;;;5020086;28;20053;-80
2022/10/29 03:21:10;;;;;;;13.73;4.43;;;13.90;99.90;;;;;;5021225;28;20026;-80
2022/10/29 03:23:36;;;;;;;13.52;4.30;;;14.00;99.90;;;;;;5038403;28;20125;-80
2022/10/29 03:26:01;;;;;;;9.40;4.03;;;14.00;99.90;;;;;;5014565;28;20497;-80
2022/10/29 03:28:30;;;;;;;14.27;4.90;;;14.00;99.90;;;;;;5023941;28;20486;-80
2022/10/29 03:30:59;;;;;;;13.82;4.85;;;13.90;99.90;;;;;;5032457;28;20104;-80
2022/10/29 03:33:27;;;;;;;11.93;4.53;;;14.00;99.90;;;;;;5018410;28;20101;-79
2022/10/29 03:36:01;;;;;;;11.60;4.93;;;14.00;99.90;;;;;;5022932;28;20529;-78
2022/10/29 03:38:27;;;;;;;15.27;5.05;;;14.00;99.90;;;;;;5022274;28;20056;-77
2022/10/29 03:40:59;;;;;;;10.20;4.20;;;14.00;99.90;;;;;;5038280;28;20014;-77
2022/10/29 03:43:28;;;;;;;17.55;4.60;;;14.00;99.90;;;;;;5033207;28;20036;-78
2022/10/29 03:45:56;;;;;;;16.80;4.57;;;14.00;99.90;;;;;;5017882;28;20026;-78
2022/10/29 03:48:23;;;;;;;9.88;4.55;;;14.00;99.90;;;;;;5017149;28;20383;-80
2022/10/29 03:50:56;;;;;;;14.57;4.47;;;14.00;99.90;;;;;;5016444;28;20022;-80
2022/10/29 03:53:22;;;;;;;12.80;5.17;;;14.00;99.90;;;;;;5025290;28;20025;-79
2022/10/29 03:55:50;;;;;;;10.43;4.55;;;14.00;99.90;;;;;;5019452;28;20057;-79
2022/10/29 03:58:25;;;;;;;20.02;5.05;;;14.00;99.90;;;;;;5023184;28;20038;-80
2022/10/29 04:01:00;;;;;;;12.55;4.53;;;13.90;99.90;;;;;;5038627;28;20034;-80
2022/10/29 04:03:42;;;;;;;9.57;4.18;;;13.90;99.90;;;;;;5038823;28;20060;-79
2022/10/29 04:06:11;;;;;;;17.67;4.32;;;13.90;99.90;;;;;;5031522;28;20029;-79
2022/10/29 04:08:49;;;;;;;13.50;4.47;;;13.90;99.90;;;;;;5016474;28;20052;-77
2022/10/29 04:11:17;;;;;;;9.82;4.00;;;14.00;99.90;;;;;;5018625;28;20029;-79
2022/10/29 04:13:43;;;;;;;9.85;4.38;;;14.00;99.90;;;;;;5019981;28;20056;-78
2022/10/29 04:16:11;;;;;;;12.85;4.50;;;13.90;99.90;;;;;;5022196;28;20030;-78
2022/10/29 04:18:45;;;;;;;11.85;4.25;;;13.90;99.90;;;;;;5026147;28;20119;-77
2022/10/29 04:21:10;;;;;;;7.82;4.82;;;14.00;99.90;;;;;;5020900;28;20382;-76
2022/10/29 04:23:49;;;;;;;11.63;5.30;;;14.00;99.90;;;;;;5035846;28;20087;-78
2022/10/29 04:26:17;;;;;;;12.43;4.28;;;14.00;99.90;;;;;;5034874;28;20026;-77
2022/10/29 04:28:50;;;;;;;10.50;4.43;;;13.90;99.90;;;;;;5020039;28;20044;-79
2022/10/29 04:31:16;;;;;;;13.48;4.53;;;14.00;99.90;;;;;;5018721;28;20030;-78
2022/10/29 04:33:48;;;;;;;15.15;4.90;;;13.90;99.90;;;;;;5019303;28;20113;-79
2022/10/29 04:36:13;;;;;;;6.72;4.00;;;14.00;99.90;;;;;;5019993;28;20034;-77
2022/10/29 04:38:51;;;;;;;11.05;4.90;;;14.00;99.90;;;;;;5017742;28;20109;-78
2022/10/29 04:41:25;;;;;;;15.02;4.88;;;14.00;99.90;;;;;;5014206;28;20078;-78
2022/10/29 04:43:51;;;;;;;11.68;4.30;;;13.90;99.90;;;;;;5016475;28;20033;-76
2022/10/29 04:46:16;;;;;;;17.15;4.65;;;13.90;99.90;;;;;;5014429;28;20534;-76
2022/10/29 04:48:42;;;;;;;14.02;4.78;;;13.90;99.90;;;;;;5013862;28;20044;-77
2022/10/29 04:51:26;;;;;;;11.55;4.10;;;13.90;99.90;;;;;;5016757;28;20037;-77
2022/10/29 04:53:52;;;;;;;;;;;13.90;99.90;;;;;;5014759;28;20113;-77
2022/10/29 04:56:20;;;;;;;9.73;3.38;;;13.90;99.90;;;;;;5016540;28;19959;-77
2022/10/29 04:58:46;;;;;;;14.30;4.40;;;14.00;99.90;;;;;;5014144;28;20041;-76
2022/10/29 05:01:14;;;;;;;8.57;4.03;;;13.90;99.90;;;;;;5012753;28;20041;-76
2022/10/29 05:03:48;;;;;;;14.65;3.90;;;13.90;99.90;;;;;;5021194;28;20430;-77
2022/10/29 05:06:14;;;;;;;16.85;4.60;;;13.90;99.90;;;;;;5015524;28;20479;-77
2022/10/29 05:08:42;;;;;;;14.75;4.40;;;14.00;99.90;;;;;;5015231;28;20034;-76
2022/10/29 05:11:14;;;;;;;11.15;5.07;;;14.00;99.90;;;;;;5020991;28;20021;-75
2022/10/29 05:13:46;;;;;;;12.10;5.22;;;14.00;99.90;;;;;;5030181;28;20022;-77
2022/10/29 05:16:11;;;;;;;13.00;4.93;;;13.90;99.90;;;;;;5035791;28;20032;-77
2022/10/29 05:18:46;;;;;;;13.95;5.00;;;13.90;99.90;;;;;;5020276;28;20038;-76
2022/10/29 05:21:11;;;;;;;16.15;4.85;;;13.90;99.90;;;;;;5008225;28;20065;-76
2022/10/29 05:23:37;;;;;;;14.93;5.80;;;13.80;99.90;;;;;;5014358;28;20044;-77
2022/10/29 05:26:18;;;;;;;14.90;5.43;;;13.80;99.90;;;;;;5018394;28;20091;-75
2022/10/29 05:28:53;;;;;;;13.13;4.97;;;13.80;99.90;;;;;;5017982;28;20482;-77
2022/10/29 05:31:18;;;;;;;13.75;5.18;;;13.80;99.90;;;;;;5016084;28;20454;-78
2022/10/29 05:33:49;;;;;;;11.52;4.85;;;13.80;99.90;;;;;;5019330;28;20627;-78
2022/10/29 05:36:15;;;;;;;17.42;5.50;;;13.70;99.90;;;;;;5014482;28;20188;-77
2022/10/29 05:38:43;;;;;;;14.68;6.05;;;13.70;99.90;;;;;;5018519;28;20039;-78
2022/10/29 05:41:09;;;;;;;16.13;7.03;;;13.60;99.90;;;;;;5014730;28;20041;-78
2022/10/29 05:43:34;;;;;;;17.00;7.35;;;13.60;99.90;;;;;;5032026;28;20121;-78
2022/10/29 05:46:03;;;;;;;21.38;7.57;;;13.60;99.90;;;;;;5018069;28;20363;-77
2022/10/29 05:48:32;;;;;;;15.88;7.78;;;13.50;99.90;;;;;;5020495;28;20511;-77
2022/10/29 05:51:01;;;;;;;17.98;7.28;;;13.50;99.90;;;;;;5019714;28;20034;-77
2022/10/29 05:53:26;;;;;;;16.08;6.88;;;13.50;99.90;;;;;;5020879;28;20422;-76
2022/10/29 05:55:52;;;;;;;24.30;7.35;;;13.40;99.90;;;;;;5014716;28;20022;-76
2022/10/29 05:58:17;;;;;;;14.60;7.55;;;13.40;99.90;;;;;;5032231;28;20034;-77
2022/10/29 06:00:44;;;;;;;15.77;8.27;;;13.40;99.90;;;;;;5019225;28;20049;-77
2022/10/29 06:03:20;;;;;;;26.13;9.07;;;13.30;99.90;;;;;;5014345;28;20034;-77
2022/10/29 06:05:47;;;;;;;19.10;8.35;;;13.30;99.90;;;;;;5031450;28;20025;-77
2022/10/29 06:08:14;;;;;;;14.90;7.90;;;13.20;99.90;;;;;;5011944;28;20025;-78
2022/10/29 06:10:45;;;;;;;14.27;7.75;;;13.20;99.90;;;;;;5016750;28;20041;-80
2022/10/29 06:13:18;;;;;;;19.05;6.90;;;13.20;99.90;;;;;;5019731;28;20029;-77
2022/10/29 06:15:50;;;;;;;12.65;6.80;;;13.10;99.90;;;;;;5023254;28;20032;-78
2022/10/29 06:18:15;;;;;;;17.00;7.68;;;13.10;99.90;;;;;;5029686;28;20017;-76
2022/10/29 06:20:42;;;;;;;16.85;7.93;;;13.10;99.90;;;;;;5018797;28;20033;-77
2022/10/29 06:23:11;;;;;;;15.40;6.55;;;13.10;99.90;;;;;;5027479;28;20025;-77
2022/10/29 06:25:36;;;;;;;20.83;7.47;;;13.10;99.90;;;;;;5047075;28;20025;-77
2022/10/29 06:28:08;;;;;;;17.13;7.30;;;13.00;99.90;;;;;;5023147;28;20543;-77
2022/10/29 06:30:47;;;;;;;16.52;7.60;;;13.00;99.90;;;;;;5021532;28;20117;-79
2022/10/29 06:33:13;;;;;;;21.13;7.00;;;13.10;99.90;;;;;;5025000;28;20025;-80
2022/10/29 06:35:42;;;;;;;15.57;5.97;;;13.00;99.90;;;;;;5026030;28;20029;-79
2022/10/29 06:38:08;;;;;;;14.95;7.30;;;13.00;99.90;;;;;;5036839;28;20029;-79
2022/10/29 06:40:40;;;;;;;15.70;7.30;;;13.00;99.90;;;;;;5016115;28;20125;-79
2022/10/29 06:43:09;;;;;;;13.82;7.15;;;13.00;99.90;;;;;;5036211;28;20029;-79
2022/10/29 06:45:48;;;;;;;20.75;8.50;;;13.00;99.90;;;;;;5022417;28;20022;-80
2022/10/29 06:48:14;;;;;;;18.10;8.52;;;13.00;99.90;;;;;;5024681;28;20021;-80
2022/10/29 06:50:40;;;;;;;20.02;8.77;;;12.90;99.90;;;;;;5022845;28;20026;-80
2022/10/29 06:53:10;;;;;;;21.67;7.78;;;12.90;99.90;;;;;;5025114;28;20026;-80
2022/10/29 06:55:36;;;;;;;20.35;8.02;;;13.00;99.90;;;;;;5018248;28;20045;-79
2022/10/29 06:58:15;;;;;;;19.33;8.30;;;13.00;99.90;;;;;;5020218;28;20061;-81
2022/10/29 07:00:45;;;;;;;18.50;7.85;;;13.00;99.90;;;;;;5033588;28;20521;-80
2022/10/29 07:03:19;;;;;;;22.50;7.40;;;13.00;99.90;;;;;;5023815;28;20066;-79
2022/10/29 07:05:45;;;;;;;19.42;8.27;;;13.00;99.90;;;;;;5022048;28;20032;-80
2022/10/29 07:08:11;;;;;;;21.50;7.78;;;13.10;99.90;;;;;;5015264;28;20025;-78
2022/10/29 07:10:37;;;;;;;15.60;6.88;;;13.10;99.90;;;;;;5019479;28;20031;-78
2022/10/29 07:13:09;;;;;;;16.23;7.60;;;13.10;99.90;;;;;;5018200;28;20101;-79
2022/10/29 07:15:35;;;;;;;18.85;7.35;;;13.20;99.90;;;;;;5017322;28;20050;-77
2022/10/29 07:18:01;;;;;;;15.88;7.53;;;13.20;99.90;;;;;;5034628;28;20029;-79
2022/10/29 07:20:29;;;;;;;19.55;7.55;;;13.30;99.90;;;;;;5017688;28;20025;-77
2022/10/29 07:22:56;;;;;;;13.07;6.95;;;13.40;99.90;;;;;;5017828;28;20049;-78
2022/10/29 07:25:28;;;;;;;18.30;7.28;;;13.40;99.90;;;;;;5017641;28;20042;-78
2022/10/29 07:28:15;;;;;;;19.83;7.47;;;13.50;99.90;;;;;;5023897;28;20033;-79
2022/10/29 07:30:44;;;;;;;21.67;6.25;;;13.60;99.90;;;;;;5031955;28;20021;-79
2022/10/29 07:33:10;;;;;;;14.18;6.05;;;13.60;99.90;;;;;;5038133;28;20053;-78
2022/10/29 07:35:36;;;;;;;22.27;6.75;;;13.60;99.90;;;;;;5020270;28;20026;-78
2022/10/29 07:38:03;;;;;;;20.63;6.47;;;13.70;99.90;;;;;;5023929;28;20530;-78
2022/10/29 07:40:35;;;;;;;15.10;6.82;;;13.70;99.90;;;;;;5037583;28;20045;-79
2022/10/29 07:43:04;;;;;;;15.13;7.07;;;13.80;99.90;;;;;;5029843;28;20049;-80
2022/10/29 07:45:36;;;;;;;13.88;6.65;;;13.80;99.90;;;;;;5019372;28;20140;-79
2022/10/29 07:48:06;;;;;;;20.73;6.95;;;13.90;99.90;;;;;;5022354;28;20538;-80
2022/10/29 07:50:32;;;;;;;17.40;6.55;;;13.90;99.90;;;;;;5036515;28;20029;-79
2022/10/29 07:53:05;;;;;;;15.48;7.07;;;13.90;99.90;;;;;;5027448;28;20049;-79
2022/10/29 07:55:49;;;;;;;15.25;5.55;;;14.00;99.90;;;;;;5019999;28;20022;-80
2022/10/29 07:58:14;;;;;;;15.32;5.70;;;14.00;99.90;;;;;;5027505;28;20057;-79
2022/10/29 08:00:43;;;;;;;18.23;6.25;;;14.10;99.90;;;;;;5023497;28;20026;-81
2022/10/29 08:03:11;;;;;;;20.13;6.47;;;14.10;99.90;;;;;;5022284;28;20107;-78
2022/10/29 08:05:40;;;;;;;11.55;5.45;;;14.20;99.90;;;;;;5028875;28;20053;-79
2022/10/29 08:08:06;;;;;;;16.42;5.70;;;14.30;99.90;;;;;;5024159;28;20022;-79
2022/10/29 08:10:33;;;;;;;10.75;4.65;;;14.30;99.90;;;;;;5023044;28;20033;-78
2022/10/29 08:13:03;;;;;;;17.80;5.30;;;14.30;99.90;;;;;;5020520;28;20022;-79
2022/10/29 08:15:33;;;;;;;17.85;5.40;;;14.40;99.90;;;;;;5021998;28;20377;-78
2022/10/29 08:18:08;;;;;;;18.92;5.38;;;14.50;99.90;;;;;;5021199;28;20029;-78
2022/10/29 08:20:33;;;;;;;15.70;5.45;;;14.60;99.90;;;;;;5021453;28;20033;-79
2022/10/29 08:22:59;;;;;;;9.48;4.95;;;14.60;99.90;;;;;;5022447;28;20030;-79
2022/10/29 08:25:25;;;;;;;16.80;5.68;;;14.70;99.90;;;;;;5041042;28;20009;-79
2022/10/29 08:28:04;;;;;;;16.33;6.35;;;14.80;99.90;;;;;;5025481;28;20078;-78
2022/10/29 08:30:33;;;;;;;13.48;5.68;;;14.80;99.90;;;;;;5024538;28;20034;-79
2022/10/29 08:32:59;;;;;;;12.88;6.10;;;14.80;99.90;;;;;;5024580;28;20030;-78
2022/10/29 08:35:28;;;;;;;14.95;5.15;;;14.90;99.90;;;;;;5024631;28;20056;-78
2022/10/29 08:38:00;;;;;;;12.23;5.78;;;15.00;99.90;;;;;;5020065;28;20030;-78
2022/10/29 08:40:51;;;;;;;16.40;6.10;;;15.10;99.90;;;;;;5020721;28;20048;-77
2022/10/29 08:43:38;;;;;;;16.70;6.28;;;15.10;99.90;;;;;;5033716;28;20053;-79
2022/10/29 08:46:14;;;;;;;12.80;6.00;;;15.20;99.90;;;;;;5019572;28;20037;-79
2022/10/29 08:48:45;;;;;;;25.83;7.00;;;15.30;99.90;;;;;;5024926;28;20080;-80
2022/10/29 08:51:32;;;;;;;12.10;6.10;;;15.30;99.90;;;;;;5021274;28;20032;-80
2022/10/29 08:54:01;;;;;;;15.77;6.03;;;15.40;99.90;;;;;;5016265;28;20018;-79
2022/10/29 08:56:35;;;;;;;14.57;5.40;;;15.50;99.90;;;;;;5005906;28;20050;-79
2022/10/29 08:59:04;;;;;;;18.45;5.93;;;15.60;99.90;;;;;;5036429;28;20112;-80
2022/10/29 09:01:30;;;;;;;14.40;5.47;;;15.60;99.90;;;;;;5020998;28;20026;-76
2022/10/29 09:03:58;;;;;;;13.57;5.63;;;15.70;99.90;;;;;;5023075;28;20030;-80
2022/10/29 09:06:53;;;;;;;8.23;4.63;;;15.70;99.90;;;;;;5030961;28;20030;-80
2022/10/29 09:09:30;;;;;;;;;;;15.80;99.90;;;;;;5019757;28;20167;-80
2022/10/29 09:12:01;;;;;;;17.60;5.75;;;15.90;99.90;;;;;;5083659;22;19931;-78
2022/10/29 09:14:47;;;;;;;13.52;5.53;;;15.90;99.90;;;;;;5101044;28;20035;-79
2022/10/29 09:17:35;;;;;;;13.75;5.03;;;16.00;99.90;;;;;;5099878;28;20074;-79
2022/10/29 09:20:32;;;;;;;14.43;5.32;;;16.10;99.90;;;;;;5097934;28;20021;-79
2022/10/29 09:23:09;;;;;;;11.18;5.13;;;16.10;99.90;;;;;;5083736;28;20076;-79
2022/10/29 09:25:50;;;;;;;13.63;5.20;;;16.20;99.90;;;;;;5079408;28;20028;-79
2022/10/29 09:28:56;;;;;;;17.10;5.43;;;16.30;99.90;;;;;;5072965;28;20032;-79
2022/10/29 09:31:44;;;;;;;14.48;4.63;;;16.30;99.90;;;;;;5096198;28;20434;-78
2022/10/29 09:34:17;;;;;;;14.82;5.20;;;16.40;99.90;;;;;;5077052;28;20020;-79
2022/10/29 09:36:53;;;;;;;13.15;5.28;;;16.40;99.90;;;;;;5076272;28;20625;-78
2022/10/29 09:39:34;;;;;;;16.13;5.00;;;16.50;99.90;;;;;;5076145;28;20123;-79
2022/10/29 09:42:12;;;;;;;16.85;5.57;;;16.60;99.90;;;;;;5075161;28;20107;-79
2022/10/29 09:44:57;;;;;;;13.15;5.25;;;16.70;99.90;;;;;;5074723;28;20028;-78
2022/10/29 09:47:40;;;;;;;16.27;4.90;;;16.70;99.90;;;;;;5076766;28;20016;-79
2022/10/29 09:50:31;;;;;;;15.52;4.90;;;16.80;99.90;;;;;;5075750;28;20369;-79
2022/10/29 09:53:00;;;;;;;15.50;5.68;;;16.90;99.90;;;;;;5081591;28;20028;-79
2022/10/29 09:55:42;;;;;;;20.83;7.10;;;17.00;99.90;;;;;;5081483;28;20072;-79
2022/10/29 09:58:21;;;;;;;24.02;6.32;;;17.00;99.90;;;;;;5079332;28;20028;-79
2022/10/29 10:00:52;;;;;;;11.43;5.30;;;17.10;99.90;;;;;;5077502;28;20017;-79
2022/10/29 10:03:36;;;;;;;16.60;5.63;;;17.20;99.90;;;;;;5076441;28;20032;-79
2022/10/29 10:06:03;;;;;;;;;;;17.30;99.90;;;;;;5076890;28;20028;-78
2022/10/29 10:08:30;;;;;;;12.77;5.30;;;17.40;99.90;;;;;;5077786;28;20003;-79
2022/10/29 10:10:56;;;;;;;13.50;5.50;;;17.50;99.90;;;;;;5076633;28;20043;-79
2022/10/29 10:13:57;;;;;;;13.02;4.22;;;17.60;99.90;;;;;;5072497;28;20051;-79
2022/10/29 10:16:32;;;;;;;16.55;5.07;;;17.70;99.90;;;;;;5056159;28;20075;-78
2022/10/29 10:19:00;;;;;;;13.70;5.10;;;17.80;99.90;;;;;;5076431;28;20021;-78
2022/10/29 10:21:32;;;;;;;12.10;5.70;;;17.90;99.90;;;;;;5070595;28;20120;-79
2022/10/29 10:24:21;;;;;;;15.20;6.10;;;17.90;99.90;;;;;;5078070;28;20046;-78
2022/10/29 10:26:47;;;;;;;14.55;5.60;;;18.00;99.90;;;;;;5077204;28;20147;-78
2022/10/29 10:29:21;;;;;;;13.70;4.95;;;18.10;99.90;;;;;;5074665;28;20068;-79
2022/10/29 10:31:55;;;;;;;14.50;6.05;;;18.10;99.90;;;;;;5075522;28;20028;-79
2022/10/29 10:34:35;;;;;;;13.13;5.60;;;18.20;99.90;;;;;;5080197;28;20130;-79
2022/10/29 10:37:20;;;;;;;17.13;6.07;;;18.20;99.90;;;;;;5074645;28;20151;-79
2022/10/29 10:40:05;;;;;;;15.15;5.47;;;18.30;99.90;;;;;;5075768;28;20028;-79
2022/10/29 10:42:41;;;;;;;16.05;6.03;;;18.40;99.90;;;;;;5073799;28;20075;-79
2022/10/29 10:45:26;;;;;;;16.55;5.53;;;18.50;99.90;;;;;;5077776;28;20035;-79
2022/10/29 10:47:57;;;;;;;14.40;6.15;;;18.50;99.90;;;;;;5085623;28;20043;-77
2022/10/29 10:50:31;;;;;;;16.42;5.70;;;18.60;99.90;;;;;;5078794;28;20499;-78
2022/10/29 10:53:00;;;;;;;13.60;5.38;;;18.70;99.90;;;;;;5077165;28;20028;-78
2022/10/29 10:55:57;;;;;;;14.35;4.50;;;18.70;99.90;;;;;;5072356;28;20013;-78
2022/10/29 10:59:13;;;;;;;16.60;4.72;;;18.80;99.90;;;;;;5077751;28;20474;-78
2022/10/29 11:02:05;;;;;;;14.07;4.82;;;18.80;99.90;;;;;;5066975;28;20036;-78
2022/10/29 11:04:40;;;;;;;11.52;4.50;;;18.90;99.90;;;;;;5075710;28;20441;-77
2022/10/29 11:07:12;;;;;;;19.98;5.57;;;18.90;99.90;;;;;;5074491;28;20013;-76
2022/10/29 11:09:44;;;;;;;16.23;4.82;;;19.00;99.90;;;;;;5075323;28;20020;-79
2022/10/29 11:12:29;;;;;;;14.57;4.43;;;19.00;99.90;;;;;;5070819;28;20063;-77
2022/10/29 11:15:26;;;;;;;11.55;3.15;;;19.00;99.90;;;;;;5088993;28;20021;-77
2022/10/29 11:18:01;;;;;;;11.68;4.55;;;19.10;99.90;;;;;;5060627;28;20040;-78
2022/10/29 11:21:06;;;;;;;12.00;4.20;;;19.20;99.90;;;;;;5073137;28;20039;-79
2022/10/29 11:23:44;;;;;;;;;;;19.30;99.90;;;;;;5069932;28;20036;-78
2022/10/29 11:26:36;;;;;;;14.00;4.70;;;19.30;99.90;;;;;;5064399;28;19916;-78
2022/10/29 11:29:42;;;;;;;13.05;5.00;;;19.30;99.90;;;;;;5068261;28;20076;-73
2022/10/29 11:32:49;;;;;;;15.02;5.22;;;19.40;99.90;;;;;;5067163;28;20024;-75
2022/10/29 11:35:31;;;;;;;19.00;5.28;;;19.50;99.90;;;;;;5083458;28;20523;-77
2022/10/29 11:38:19;;;;;;;12.90;4.75;;;19.50;99.90;;;;;;5072871;28;20123;-78
2022/10/29 11:41:09;;;;;;;13.65;4.90;;;19.60;99.90;;;;;;5072923;28;20035;-78
2022/10/29 11:43:35;;;;;;;15.50;4.97;;;19.60;99.90;;;;;;5075893;28;20028;-78
2022/10/29 11:46:28;;;;;;;16.08;4.35;;;19.60;99.90;;;;;;5079874;28;20024;-77
2022/10/29 11:49:18;;;;;;;14.80;5.10;;;19.60;99.90;;;;;;5075253;28;20033;-78
2022/10/29 11:51:47;;;;;;;15.77;4.35;;;19.60;99.90;;;;;;5074511;28;20040;-77
2022/10/29 11:54:27;;;;;;;16.40;5.00;;;19.70;99.90;;;;;;5072881;28;20024;-78
2022/10/29 11:57:32;;;;;;;12.40;5.00;;;19.80;99.90;;;;;;5076369;28;20084;-78
2022/10/29 12:00:00;;;;;;;15.68;4.85;;;19.80;99.90;;;;;;5075051;28;20264;-78
2022/10/29 12:03:06;;;;;;;16.80;4.47;;;19.90;99.90;;;;;;5076142;28;20108;-78
2022/10/29 12:06:19;;;;;;;13.27;4.75;;;19.90;99.90;;;;;;5076631;28;20303;-79
2022/10/29 12:09:08;;;;;;;11.85;4.38;;;20.00;99.90;;;;;;5032439;28;20032;-78
2022/10/29 12:11:56;;;;;;;15.20;4.78;;;20.10;99.90;;;;;;5071895;28;20105;-78
2022/10/29 12:14:28;;;;;;;14.40;4.30;;;20.10;99.90;;;;;;5080495;28;20110;-78
2022/10/29 12:17:16;;;;;;;13.40;4.00;;;20.20;99.90;;;;;;5080763;28;20499;-77
2022/10/29 12:20:05;;;;;;;11.52;4.50;;;20.30;99.90;;;;;;5077849;28;20021;-78
2022/10/29 12:22:57;;;;;;;11.68;4.22;;;20.40;99.90;;;;;;5081568;28;20021;-78
2022/10/29 12:25:50;;;;;;;17.95;5.75;;;20.50;99.90;;;;;;5080183;28;20063;-78
2022/10/29 12:28:44;;;;;;;12.10;4.50;;;20.60;99.90;;;;;;5091602;28;20097;-77
2022/10/29 12:31:43;;;;;;;11.35;3.40;;;20.50;99.90;;;;;;5080684;28;20082;-79
2022/10/29 12:34:39;;;;;;;21.50;4.93;;;20.60;99.90;;;;;;5081703;28;20036;-78
2022/10/29 12:37:41;;;;;;;11.50;4.05;;;20.60;99.90;;;;;;5066750;28;20043;-78
2022/10/29 12:40:23;;;;;;;13.57;4.70;;;20.60;99.90;;;;;;5079029;28;20051;-78
2022/10/29 12:42:53;;;;;;;18.90;4.43;;;20.70;99.90;;;;;;5078729;28;20024;-76
2022/10/29 12:45:42;;;;;;;9.90;4.60;;;20.70;99.90;;;;;;5076683;28;20032;-78
2022/10/29 12:48:22;;;;;;;11.82;4.72;;;20.70;99.90;;;;;;5074121;28;20051;-77
2022/10/29 12:51:05;;;;;;;14.70;5.05;;;20.80;99.90;;;;;;5073391;28;20033;-78
2022/10/29 12:53:43;;;;;;;14.02;4.75;;;20.80;99.90;;;;;;5080022;28;20051;-78
2022/10/29 12:56:11;;;;;;;18.77;5.68;;;20.80;99.90;;;;;;5075619;28;20017;-76
2022/10/29 12:58:51;;;;;;;13.20;5.40;;;20.80;99.90;;;;;;5076223;28;20020;-77
2022/10/29 13:01:50;;;;;;;12.10;5.53;;;20.90;99.90;;;;;;5091354;28;20024;-77
2022/10/29 13:04:28;;;;;;;18.40;5.82;;;20.90;99.90;;;;;;5049615;28;20032;-77
2022/10/29 13:07:25;;;;;;;15.07;5.40;;;21.00;99.90;;;;;;5077244;28;20138;-77
2022/10/29 13:10:17;;;;;;;13.38;5.57;;;21.00;99.90;;;;;;5079891;28;20082;-78
2022/10/29 13:13:13;;;;;;;16.05;5.35;;;21.10;99.90;;;;;;5077748;28;20520;-78
2022/10/29 13:15:43;;;;;;;10.82;4.53;;;21.10;99.90;;;;;;5076466;28;20558;-78